createdAt,value
2023-05-10T00:00:40.182Z,100.00
2023-05-10T00:06:53.589Z,100.00
2023-05-10T00:09:19.955Z,100.00
2023-05-10T00:11:46.319Z,100.00
2023-05-10T00:14:12.795Z,100.00
2023-05-10T00:16:39.162Z,100.00
2023-05-10T00:19:05.754Z,100.00
2023-05-10T00:21:33.030Z,100.00
2023-05-10T00:23:59.352Z,100.00
2023-05-10T00:26:25.896Z,100.00
2023-05-10T00:28:52.280Z,100.00
2023-05-10T00:31:18.759Z,100.00
2023-05-10T00:33:45.204Z,100.00
2023-05-10T00:36:11.736Z,100.00
2023-05-10T00:38:38.110Z,100.00
2023-05-10T00:41:04.785Z,100.00
2023-05-10T00:43:31.144Z,100.00
2023-05-10T00:45:58.138Z,100.00
2023-05-10T00:48:24.743Z,100.00
2023-05-10T00:50:51.119Z,100.00
2023-05-10T00:53:17.902Z,100.00
2023-05-10T00:55:44.532Z,100.00
2023-05-10T00:58:10.884Z,100.00
2023-05-10T01:00:38.775Z,100.00
2023-05-10T01:03:05.240Z,100.00
2023-05-10T01:05:32.829Z,100.00
2023-05-10T01:07:59.213Z,100.00
2023-05-10T01:10:25.917Z,100.00
2023-05-10T01:12:52.530Z,100.00
2023-05-10T01:15:19.743Z,100.00
2023-05-10T01:17:48.245Z,100.00
2023-05-10T01:20:16.255Z,100.00
2023-05-10T01:23:10.640Z,100.00
2023-05-10T01:26:01.089Z,100.00
2023-05-10T01:28:36.593Z,100.00
2023-05-10T01:31:31.045Z,100.00
2023-05-10T01:34:07.746Z,100.00
2023-05-10T01:36:46.484Z,100.00
2023-05-10T01:39:22.225Z,100.00
2023-05-10T01:42:29.639Z,100.00
2023-05-10T01:45:01.603Z,100.00
2023-05-10T01:47:43.298Z,100.00
2023-05-10T01:50:19.137Z,100.00
2023-05-10T01:52:50.929Z,100.00
2023-05-10T01:55:21.769Z,100.00
2023-05-10T01:57:53.654Z,100.00
2023-05-10T02:00:21.210Z,100.00
2023-05-10T02:02:50.570Z,100.00
2023-05-10T02:05:18.659Z,100.00
2023-05-10T02:07:46.370Z,100.00
2023-05-10T02:10:15.377Z,100.00
2023-05-10T02:12:46.200Z,100.00
2023-05-10T02:15:16.394Z,100.00
2023-05-10T02:17:43.374Z,100.00
2023-05-10T02:20:11.200Z,100.00
2023-05-10T02:22:39.022Z,100.00
2023-05-10T02:25:07.705Z,100.00
2023-05-10T02:27:34.700Z,100.00
2023-05-10T02:30:02.028Z,100.00
2023-05-10T02:32:28.822Z,100.00
2023-05-10T02:34:56.094Z,100.00
2023-05-10T02:37:23.198Z,100.00
2023-05-10T02:39:55.862Z,100.00
2023-05-10T02:42:27.460Z,100.00
2023-05-10T02:44:57.806Z,100.00
2023-05-10T02:47:24.176Z,100.00
2023-05-10T02:49:50.695Z,100.00
2023-05-10T02:52:28.283Z,100.00
2023-05-10T02:54:59.281Z,100.00
2023-05-10T02:57:32.856Z,100.00
2023-05-10T02:59:59.449Z,100.00
2023-05-10T03:02:26.042Z,100.00
2023-05-10T03:04:52.494Z,100.00
2023-05-10T03:07:22.050Z,100.00
2023-05-10T03:09:50.295Z,100.00
2023-05-10T03:12:27.927Z,100.00
2023-05-10T03:15:08.719Z,100.00
2023-05-10T03:17:50.481Z,100.00
2023-05-10T03:20:30.164Z,100.00
2023-05-10T03:23:03.605Z,100.00
2023-05-10T03:25:31.960Z,100.00
2023-05-10T03:27:59.237Z,100.00
2023-05-10T03:30:26.333Z,100.00
2023-05-10T03:32:52.824Z,100.00
2023-05-10T03:35:19.247Z,100.00
2023-05-10T03:37:45.752Z,100.00
2023-05-10T03:40:12.418Z,100.00
2023-05-10T03:42:38.789Z,100.00
2023-05-10T03:45:06.803Z,100.00
2023-05-10T03:47:33.305Z,100.00
2023-05-10T03:49:59.588Z,100.00
2023-05-10T03:52:26.242Z,100.00
2023-05-10T03:54:52.573Z,100.00
2023-05-10T03:57:18.868Z,100.00
2023-05-10T03:59:45.856Z,100.00
2023-05-10T04:02:12.249Z,100.00
2023-05-10T04:04:38.753Z,100.00
2023-05-10T04:07:05.169Z,100.00
2023-05-10T04:09:31.491Z,100.00
2023-05-10T04:11:59.309Z,100.00
2023-05-10T04:14:25.660Z,100.00
2023-05-10T04:16:52.019Z,100.00
2023-05-10T04:19:18.394Z,100.00
2023-05-10T04:21:44.933Z,100.00
2023-05-10T04:24:12.290Z,100.00
2023-05-10T04:26:39.518Z,100.00
2023-05-10T04:29:05.917Z,100.00
2023-05-10T04:31:32.341Z,100.00
2023-05-10T04:33:58.664Z,100.00
2023-05-10T04:36:25.000Z,100.00
2023-05-10T04:38:51.329Z,100.00
2023-05-10T04:41:17.655Z,100.00
2023-05-10T04:43:44.050Z,100.00
2023-05-10T04:46:10.475Z,100.00
2023-05-10T04:48:36.830Z,100.00
2023-05-10T04:51:04.818Z,100.00
2023-05-10T04:53:31.291Z,100.00
2023-05-10T04:55:57.608Z,100.00
2023-05-10T04:58:24.136Z,100.00
2023-05-10T05:00:50.956Z,100.00
2023-05-10T05:03:17.494Z,100.00
2023-05-10T05:05:45.003Z,100.00
2023-05-10T05:08:11.399Z,100.00
2023-05-10T05:10:37.778Z,100.00
2023-05-10T05:13:04.141Z,100.00
2023-05-10T05:15:31.481Z,100.00
2023-05-10T05:17:58.155Z,100.00
2023-05-10T05:20:24.578Z,100.00
2023-05-10T05:22:50.900Z,100.00
2023-05-10T05:25:17.382Z,100.00
2023-05-10T05:27:43.749Z,100.00
2023-05-10T05:30:10.782Z,100.00
2023-05-10T05:32:37.121Z,100.00
2023-05-10T05:35:03.657Z,100.00
2023-05-10T05:37:29.985Z,100.00
2023-05-10T05:39:56.289Z,100.00
2023-05-10T05:42:22.629Z,100.00
2023-05-10T05:44:49.033Z,100.00
2023-05-10T05:47:15.390Z,100.00
2023-05-10T05:49:41.810Z,100.00
2023-05-10T05:52:08.144Z,100.00
2023-05-10T05:54:34.614Z,100.00
2023-05-10T05:57:01.760Z,100.00
2023-05-10T05:59:28.469Z,100.00
2023-05-10T06:01:55.056Z,100.00
2023-05-10T06:04:21.579Z,100.00
2023-05-10T06:06:47.904Z,100.00
2023-05-10T06:09:14.297Z,100.00
2023-05-10T06:11:40.793Z,100.00
2023-05-10T06:14:08.619Z,100.00
2023-05-10T06:16:35.573Z,100.00
2023-05-10T06:19:02.217Z,100.00
2023-05-10T06:21:28.633Z,100.00
2023-05-10T06:23:54.957Z,100.00
2023-05-10T06:26:21.844Z,100.00
2023-05-10T06:28:48.215Z,100.00
2023-05-10T06:31:14.605Z,100.00
2023-05-10T06:33:41.503Z,100.00
2023-05-10T06:36:08.003Z,100.00
2023-05-10T06:38:34.563Z,100.00
2023-05-10T06:41:01.522Z,100.00
2023-05-10T06:43:29.443Z,100.00
2023-05-10T06:45:55.889Z,100.00
2023-05-10T06:48:22.418Z,100.00
2023-05-10T06:50:48.932Z,100.00
2023-05-10T06:53:15.275Z,100.00
2023-05-10T06:55:41.761Z,100.00
2023-05-10T06:58:08.119Z,100.00
2023-05-10T07:00:34.757Z,100.00
2023-05-10T07:03:03.357Z,100.00
2023-05-10T07:05:30.389Z,100.00
2023-05-10T07:07:56.788Z,100.00
2023-05-10T07:10:23.127Z,100.00
2023-05-10T07:12:49.617Z,100.00
2023-05-10T07:15:17.099Z,100.00
2023-05-10T07:17:45.704Z,100.00
2023-05-10T07:20:13.083Z,100.00
2023-05-10T07:22:39.445Z,100.00
2023-05-10T07:25:06.391Z,100.00
2023-05-10T07:27:35.846Z,100.00
2023-05-10T07:30:02.414Z,100.00
2023-05-10T07:32:28.850Z,100.00
2023-05-10T07:34:55.357Z,100.00
2023-05-10T07:37:21.704Z,100.00
2023-05-10T07:39:48.066Z,100.00
2023-05-10T07:42:14.895Z,100.00
2023-05-10T07:44:41.183Z,100.00
2023-05-10T07:47:07.460Z,100.00
2023-05-10T07:49:33.777Z,100.00
2023-05-10T07:52:00.081Z,100.00
2023-05-10T07:54:26.930Z,100.00
2023-05-10T07:56:53.245Z,100.00
2023-05-10T07:59:19.622Z,100.00
2023-05-10T08:01:46.068Z,100.00
2023-05-10T08:04:12.720Z,100.00
2023-05-10T08:06:39.240Z,100.00
2023-05-10T08:09:05.718Z,100.00
2023-05-10T08:11:33.712Z,100.00
2023-05-10T08:14:01.243Z,100.00
2023-05-10T08:16:27.778Z,100.00
2023-05-10T08:18:56.120Z,100.00
2023-05-10T08:21:22.505Z,100.00
2023-05-10T08:23:49.863Z,100.00
2023-05-10T08:26:16.329Z,100.00
2023-05-10T08:28:42.658Z,100.00
2023-05-10T08:31:09.084Z,100.00
2023-05-10T08:33:35.571Z,100.00
2023-05-10T08:36:01.946Z,100.00
2023-05-10T08:38:28.321Z,100.00
2023-05-10T08:40:59.377Z,100.00
2023-05-10T08:43:29.969Z,100.00
2023-05-10T08:45:59.954Z,100.00
2023-05-10T08:48:29.791Z,100.00
2023-05-10T08:50:59.834Z,100.00
2023-05-10T08:53:28.163Z,100.00
2023-05-10T08:55:55.237Z,100.00
2023-05-10T08:58:21.706Z,100.00
2023-05-10T09:00:50.368Z,100.00
2023-05-10T09:03:16.969Z,100.00
2023-05-10T09:05:43.499Z,100.00
2023-05-10T09:08:10.301Z,100.00
2023-05-10T09:10:37.840Z,100.00
2023-05-10T09:13:04.850Z,100.00
2023-05-10T09:15:31.813Z,100.00
2023-05-10T09:18:00.416Z,100.00
2023-05-10T09:20:26.801Z,100.00
2023-05-10T09:22:53.142Z,100.00
2023-05-10T09:25:20.180Z,100.00
2023-05-10T09:27:48.333Z,100.00
2023-05-10T09:30:26.548Z,100.00
2023-05-10T09:32:53.781Z,100.00
2023-05-10T09:35:22.518Z,100.00
2023-05-10T09:37:51.550Z,100.00
2023-05-10T09:40:21.060Z,100.00
2023-05-10T09:43:00.671Z,100.00
2023-05-10T09:45:32.107Z,100.00
2023-05-10T09:48:00.172Z,100.00
2023-05-10T09:50:27.529Z,100.00
2023-05-10T09:53:01.932Z,100.00
2023-05-10T09:55:37.127Z,100.00
2023-05-10T09:58:03.514Z,100.00
2023-05-10T10:00:36.665Z,100.00
2023-05-10T10:03:04.251Z,100.00
2023-05-10T10:05:32.305Z,99.34
2023-05-10T10:07:59.797Z,100.00
2023-05-10T10:10:27.197Z,100.00
2023-05-10T10:12:54.526Z,100.00
2023-05-10T10:15:25.004Z,100.00
2023-05-10T10:17:52.879Z,99.21
2023-05-10T10:20:21.199Z,96.62
2023-05-10T10:22:48.705Z,100.00
2023-05-10T10:25:17.587Z,98.18
2023-05-10T10:27:54.213Z,98.17
2023-05-10T10:30:36.283Z,99.55
2023-05-10T10:33:30.680Z,95.25
2023-05-10T10:36:00.949Z,96.21
2023-05-10T10:38:38.011Z,94.73
2023-05-10T10:41:11.444Z,98.83
2023-05-10T10:43:37.799Z,95.90
2023-05-10T10:46:17.978Z,95.02
2023-05-10T10:49:08.880Z,96.20
2023-05-10T10:51:39.029Z,98.18
2023-05-10T10:54:11.911Z,99.93
2023-05-10T10:56:38.435Z,99.05
2023-05-10T10:59:05.132Z,100.00
2023-05-10T11:01:38.156Z,100.00
2023-05-10T11:04:04.580Z,97.09
2023-05-10T11:06:36.470Z,100.00
2023-05-10T11:09:10.766Z,94.44
2023-05-10T11:11:49.621Z,95.43
2023-05-10T11:14:21.302Z,92.51
2023-05-10T11:16:47.872Z,94.83
2023-05-10T11:19:16.289Z,88.05
2023-05-10T11:21:46.565Z,88.42
2023-05-10T11:24:18.413Z,86.77
2023-05-10T11:26:45.947Z,84.77
2023-05-10T11:29:14.493Z,85.09
2023-05-10T11:31:47.936Z,86.89
2023-05-10T11:34:28.057Z,84.29
2023-05-10T11:36:56.220Z,83.79
2023-05-10T11:39:26.326Z,82.02
2023-05-10T11:41:52.713Z,82.47
2023-05-10T11:44:19.154Z,79.78
2023-05-10T11:46:45.750Z,79.63
2023-05-10T11:49:14.108Z,79.68
2023-05-10T11:51:40.776Z,77.23
2023-05-10T11:54:13.005Z,75.31
2023-05-10T11:56:40.962Z,76.50
2023-05-10T11:59:08.763Z,76.06
2023-05-10T12:01:36.080Z,79.46
2023-05-10T12:04:02.994Z,78.28
2023-05-10T12:06:32.139Z,80.75
2023-05-10T12:08:59.516Z,72.00
2023-05-10T12:11:28.604Z,77.20
2023-05-10T12:13:56.991Z,78.89
2023-05-10T12:16:29.797Z,75.50
2023-05-10T12:19:01.261Z,77.96
2023-05-10T12:21:31.287Z,77.00
2023-05-10T12:24:03.236Z,80.75
2023-05-10T12:26:30.236Z,74.32
2023-05-10T12:29:15.266Z,73.36
2023-05-10T12:31:51.855Z,71.85
2023-05-10T12:34:31.131Z,71.49
2023-05-10T12:36:57.546Z,72.56
2023-05-10T12:39:24.584Z,74.72
2023-05-10T12:41:51.707Z,73.15
2023-05-10T12:44:18.656Z,75.67
2023-05-10T12:46:45.031Z,73.58
2023-05-10T12:49:11.463Z,72.77
2023-05-10T12:51:37.852Z,74.09
2023-05-10T12:54:04.642Z,73.21
2023-05-10T12:56:31.035Z,75.84
2023-05-10T12:58:57.352Z,77.67
2023-05-10T13:01:23.786Z,70.49
2023-05-10T13:03:50.260Z,73.08
2023-05-10T13:06:16.582Z,72.08
2023-05-10T13:08:42.873Z,74.76
2023-05-10T13:11:09.281Z,77.12
2023-05-10T13:13:35.649Z,79.85
2023-05-10T13:16:02.000Z,80.43
2023-05-10T13:18:28.455Z,80.04
2023-05-10T13:20:55.071Z,79.52
2023-05-10T13:23:21.394Z,79.73
2023-05-10T13:25:48.275Z,71.08
2023-05-10T13:28:14.702Z,74.42
2023-05-10T13:30:41.077Z,73.42
2023-05-10T13:33:07.486Z,71.43
2023-05-10T13:35:33.929Z,72.94
2023-05-10T13:38:00.264Z,74.75
2023-05-10T13:40:26.564Z,72.80
2023-05-10T13:42:53.860Z,76.29
2023-05-10T13:45:20.599Z,72.92
2023-05-10T13:47:46.980Z,71.07
2023-05-10T13:50:13.318Z,71.78
2023-05-10T13:52:39.634Z,71.05
2023-05-10T13:55:06.360Z,71.63
2023-05-10T13:57:32.677Z,68.68
2023-05-10T13:59:59.095Z,74.07
2023-05-10T14:02:26.781Z,70.59
2023-05-10T14:04:53.178Z,71.76
2023-05-10T14:07:20.252Z,69.06
2023-05-10T14:09:46.581Z,74.31
2023-05-10T14:12:12.985Z,75.58
2023-05-10T14:14:39.931Z,75.35
2023-05-10T14:17:06.347Z,73.46
2023-05-10T14:19:34.515Z,73.23
2023-05-10T14:22:01.024Z,73.50
2023-05-10T14:24:27.459Z,70.36
2023-05-10T14:26:56.477Z,74.24
2023-05-10T14:29:22.967Z,72.88
2023-05-10T14:31:49.382Z,72.92
2023-05-10T14:34:15.756Z,69.85
2023-05-10T14:36:42.085Z,73.89
2023-05-10T14:39:10.777Z,73.51
2023-05-10T14:41:37.969Z,73.11
2023-05-10T14:44:04.342Z,76.37
2023-05-10T14:46:30.922Z,75.84
2023-05-10T14:48:57.313Z,75.35
2023-05-10T14:51:23.727Z,75.21
2023-05-10T14:53:50.381Z,74.64
2023-05-10T14:56:16.718Z,72.77
2023-05-10T14:58:43.068Z,74.00
2023-05-10T15:01:09.677Z,76.12
2023-05-10T15:03:36.724Z,74.13
2023-05-10T15:06:04.841Z,74.12
2023-05-10T15:08:31.141Z,72.78
2023-05-10T15:10:57.807Z,73.70
2023-05-10T15:13:24.216Z,70.81
2023-05-10T15:15:50.793Z,74.70
2023-05-10T15:18:17.833Z,73.43
2023-05-10T15:20:44.240Z,71.89
2023-05-10T15:23:10.618Z,71.69
2023-05-10T15:25:38.148Z,74.02
2023-05-10T15:28:05.201Z,73.95
2023-05-10T15:30:31.569Z,74.59
2023-05-10T15:32:58.005Z,72.71
2023-05-10T15:35:24.601Z,74.92
2023-05-10T15:37:51.242Z,74.67
2023-05-10T15:40:18.179Z,74.92
2023-05-10T15:42:44.548Z,69.94
2023-05-10T15:45:12.061Z,72.31
2023-05-10T15:47:40.534Z,72.18
2023-05-10T15:50:07.703Z,72.43
2023-05-10T15:52:34.354Z,70.13
2023-05-10T15:55:00.664Z,72.71
2023-05-10T15:57:27.150Z,73.88
2023-05-10T15:59:53.632Z,68.50
2023-05-10T16:02:20.026Z,70.66
2023-05-10T16:04:46.422Z,70.66
2023-05-10T16:07:12.761Z,68.88
2023-05-10T16:09:39.056Z,68.29
2023-05-10T16:12:05.548Z,68.02
2023-05-10T16:14:31.919Z,67.93
2023-05-10T16:16:58.371Z,66.36
2023-05-10T16:19:25.477Z,68.04
2023-05-10T16:21:53.050Z,68.09
2023-05-10T16:24:19.365Z,64.65
2023-05-10T16:26:45.933Z,62.91
2023-05-10T16:29:12.319Z,63.22
2023-05-10T16:31:38.990Z,64.46
2023-05-10T16:34:05.414Z,66.07
2023-05-10T16:36:33.351Z,68.16
2023-05-10T16:39:00.266Z,68.13
2023-05-10T16:41:26.728Z,68.18
2023-05-10T16:43:53.064Z,68.38
2023-05-10T16:46:19.485Z,63.17
2023-05-10T16:48:46.022Z,64.03
2023-05-10T16:51:12.479Z,69.28
2023-05-10T16:53:38.855Z,68.63
2023-05-10T16:56:05.488Z,69.85
2023-05-10T16:58:31.810Z,65.75
2023-05-10T17:00:58.144Z,67.32
2023-05-10T17:03:24.657Z,65.70
2023-05-10T17:05:51.439Z,65.65
2023-05-10T17:08:17.867Z,65.80
2023-05-10T17:10:44.173Z,65.53
2023-05-10T17:13:10.862Z,64.03
2023-05-10T17:15:38.551Z,65.03
2023-05-10T17:18:05.511Z,63.49
2023-05-10T17:20:32.059Z,67.01
2023-05-10T17:22:58.525Z,65.19
2023-05-10T17:25:24.899Z,68.56
2023-05-10T17:27:51.190Z,63.87
2023-05-10T17:30:22.386Z,64.87
2023-05-10T17:32:48.858Z,64.39
2023-05-10T17:35:15.337Z,66.55
2023-05-10T17:37:41.815Z,66.19
2023-05-10T17:40:09.908Z,63.65
2023-05-10T17:42:36.345Z,66.92
2023-05-10T17:45:03.699Z,66.75
2023-05-10T17:47:30.192Z,67.31
2023-05-10T17:49:56.601Z,65.93
2023-05-10T17:52:22.995Z,70.31
2023-05-10T17:54:49.314Z,65.43
2023-05-10T17:57:15.653Z,65.10
2023-05-10T17:59:42.032Z,66.00
2023-05-10T18:02:08.441Z,65.25
2023-05-10T18:04:35.458Z,65.13
2023-05-10T18:07:01.987Z,65.28
2023-05-10T18:09:29.153Z,64.80
2023-05-10T18:11:55.606Z,64.84
2023-05-10T18:14:35.817Z,65.33
2023-05-10T18:17:05.932Z,65.96
2023-05-10T18:19:32.359Z,66.53
2023-05-10T18:21:58.728Z,65.27
2023-05-10T18:24:37.518Z,67.35
2023-05-10T18:27:05.879Z,67.13
2023-05-10T18:29:32.568Z,68.03
2023-05-10T18:31:59.006Z,66.78
2023-05-10T18:34:25.417Z,68.45
2023-05-10T18:36:52.287Z,67.35
2023-05-10T18:39:18.874Z,68.96
2023-05-10T18:41:45.639Z,68.49
2023-05-10T18:44:12.001Z,69.16
2023-05-10T18:46:38.444Z,70.50
2023-05-10T18:49:05.698Z,71.28
2023-05-10T18:51:32.089Z,72.30
2023-05-10T18:53:58.458Z,73.47
2023-05-10T18:56:24.897Z,73.03
2023-05-10T18:58:51.284Z,73.40
2023-05-10T19:01:17.772Z,75.44
2023-05-10T19:03:44.197Z,75.95
2023-05-10T19:06:11.282Z,75.64
2023-05-10T19:08:37.586Z,75.53
2023-05-10T19:11:03.883Z,76.12
2023-05-10T19:13:30.360Z,75.55
2023-05-10T19:16:04.490Z,76.90
2023-05-10T19:18:31.141Z,77.78
2023-05-10T19:20:57.573Z,78.75
2023-05-10T19:23:24.070Z,85.21
2023-05-10T19:25:50.553Z,86.73
2023-05-10T19:28:17.410Z,83.66
2023-05-10T19:30:43.767Z,86.15
2023-05-10T19:33:10.413Z,88.52
2023-05-10T19:35:37.282Z,88.22
2023-05-10T19:38:03.669Z,89.89
2023-05-10T19:40:30.104Z,91.01
2023-05-10T19:42:57.046Z,91.72
2023-05-10T19:45:23.428Z,90.58
2023-05-10T19:47:50.185Z,87.10
2023-05-10T19:50:18.253Z,90.33
2023-05-10T19:52:45.129Z,88.05
2023-05-10T19:55:24.810Z,90.02
2023-05-10T19:57:51.114Z,88.10
2023-05-10T20:00:17.765Z,90.64
2023-05-10T20:02:44.260Z,90.95
2023-05-10T20:05:10.615Z,91.41
2023-05-10T20:07:37.138Z,88.51
2023-05-10T20:10:04.052Z,90.52
2023-05-10T20:12:30.413Z,92.21
2023-05-10T20:14:57.077Z,91.52
2023-05-10T20:17:23.474Z,93.50
2023-05-10T20:19:49.779Z,90.47
2023-05-10T20:22:16.515Z,86.73
2023-05-10T20:24:42.866Z,89.29
2023-05-10T20:27:09.171Z,87.02
2023-05-10T20:29:35.787Z,86.99
2023-05-10T20:32:02.146Z,91.41
2023-05-10T20:34:28.770Z,89.01
2023-05-10T20:36:55.065Z,92.38
2023-05-10T20:39:21.388Z,94.35
2023-05-10T20:41:47.905Z,91.94
2023-05-10T20:44:14.199Z,96.36
2023-05-10T20:46:40.653Z,95.59
2023-05-10T20:49:08.705Z,93.48
2023-05-10T20:51:35.032Z,91.44
2023-05-10T20:54:02.526Z,93.90
2023-05-10T20:56:28.924Z,95.43
2023-05-10T20:58:55.260Z,92.57
2023-05-10T21:01:21.655Z,90.80
2023-05-10T21:03:48.176Z,89.50
2023-05-10T21:06:14.495Z,93.18
2023-05-10T21:08:40.802Z,92.29
2023-05-10T21:11:07.241Z,93.98
2023-05-10T21:13:33.587Z,95.52
2023-05-10T21:16:00.232Z,95.90
2023-05-10T21:18:26.689Z,98.08
2023-05-10T21:20:53.041Z,100.00
2023-05-10T21:23:19.381Z,100.00
2023-05-10T21:25:45.842Z,100.00
2023-05-10T21:28:12.195Z,99.70
2023-05-10T21:30:38.529Z,100.00
2023-05-10T21:33:04.874Z,98.21
2023-05-10T21:35:31.516Z,100.00
2023-05-10T21:37:58.369Z,100.00
2023-05-10T21:40:24.742Z,100.00
2023-05-10T21:42:51.256Z,97.46
2023-05-10T21:45:19.227Z,100.00
2023-05-10T21:47:45.837Z,99.27
2023-05-10T21:50:12.591Z,96.85
2023-05-10T21:52:39.471Z,97.31
2023-05-10T21:55:06.492Z,97.28
2023-05-10T21:57:32.804Z,98.12
2023-05-10T21:59:59.081Z,98.98
2023-05-10T22:02:25.587Z,100.00
2023-05-10T22:04:52.050Z,100.00
2023-05-10T22:07:18.419Z,100.00
2023-05-10T22:09:44.736Z,100.00
2023-05-10T22:12:11.973Z,100.00
2023-05-10T22:14:38.325Z,100.00
2023-05-10T22:17:04.806Z,100.00
2023-05-10T22:19:31.218Z,100.00
2023-05-10T22:21:57.543Z,99.61
2023-05-10T22:24:23.908Z,100.00
2023-05-10T22:26:50.222Z,100.00
2023-05-10T22:29:16.841Z,100.00
2023-05-10T22:31:43.133Z,100.00
2023-05-10T22:34:09.442Z,100.00
2023-05-10T22:36:36.283Z,100.00
2023-05-10T22:39:02.646Z,100.00
2023-05-10T22:41:29.047Z,100.00
2023-05-10T22:43:55.422Z,100.00
2023-05-10T22:46:21.776Z,100.00
2023-05-10T22:48:48.200Z,100.00
2023-05-10T22:51:14.514Z,100.00
2023-05-10T22:53:41.228Z,100.00
2023-05-10T22:56:07.648Z,100.00
2023-05-10T22:58:34.162Z,100.00
2023-05-10T23:01:00.617Z,100.00
2023-05-10T23:03:27.046Z,100.00
2023-05-10T23:05:53.383Z,100.00
2023-05-10T23:08:19.713Z,100.00
2023-05-10T23:10:46.197Z,100.00
2023-05-10T23:13:13.141Z,100.00
2023-05-10T23:15:40.246Z,100.00
2023-05-10T23:18:06.698Z,100.00
2023-05-10T23:20:33.222Z,100.00
2023-05-10T23:22:59.569Z,100.00
2023-05-10T23:25:26.032Z,100.00
2023-05-10T23:27:52.348Z,100.00
2023-05-10T23:30:18.865Z,100.00
2023-05-10T23:32:45.409Z,100.00
2023-05-10T23:35:11.874Z,100.00
2023-05-10T23:37:38.215Z,100.00
2023-05-10T23:40:05.088Z,100.00
2023-05-10T23:42:32.340Z,100.00
2023-05-10T23:44:58.673Z,100.00
2023-05-10T23:47:25.200Z,100.00
2023-05-10T23:49:51.582Z,100.00
2023-05-10T23:52:17.977Z,100.00
2023-05-10T23:54:45.848Z,100.00
2023-05-10T23:57:12.351Z,100.00
2023-05-10T23:59:38.636Z,100.00
